createdAt,value
2022-09-23T00:00:18.921Z,6.49
2022-09-23T00:01:18.951Z,6.52
2022-09-23T00:02:18.965Z,6.66
2022-09-23T00:03:18.863Z,6.56
2022-09-23T00:04:18.860Z,6.58
2022-09-23T00:05:18.833Z,6.55
2022-09-23T00:06:18.850Z,6.59
2022-09-23T00:07:18.835Z,6.54
2022-09-23T00:08:18.800Z,6.56
2022-09-23T00:09:18.797Z,6.67
2022-09-23T00:10:18.789Z,6.46
2022-09-23T00:11:18.802Z,6.52
2022-09-23T00:12:29.946Z,6.61
2022-09-23T00:13:18.801Z,6.56
2022-09-23T00:14:18.746Z,6.40
2022-09-23T00:15:18.723Z,6.41
2022-09-23T00:16:18.800Z,6.52
2022-09-23T00:17:18.714Z,6.51
2022-09-23T00:18:18.709Z,6.56
2022-09-23T00:19:18.679Z,6.61
2022-09-23T00:20:18.695Z,6.44
2022-09-23T00:21:18.702Z,6.43
2022-09-23T00:22:18.638Z,6.46
2022-09-23T00:23:18.647Z,6.43
2022-09-23T00:24:18.654Z,6.46
2022-09-23T00:25:18.658Z,6.38
2022-09-23T00:26:18.613Z,6.43
2022-09-23T00:27:18.652Z,6.44
2022-09-23T00:28:18.585Z,6.33
2022-09-23T00:29:19.379Z,6.21
2022-09-23T00:30:18.574Z,6.19
2022-09-23T00:31:18.619Z,6.21
2022-09-23T00:32:18.594Z,6.18
2022-09-23T00:33:18.542Z,6.18
2022-09-23T00:34:18.542Z,6.03
2022-09-23T00:35:18.530Z,6.04
2022-09-23T00:36:18.509Z,6.12
2022-09-23T00:37:18.503Z,6.22
2022-09-23T00:38:19.262Z,6.19
2022-09-23T00:39:18.496Z,6.18
2022-09-23T00:40:18.499Z,6.14
2022-09-23T00:41:18.450Z,6.15
2022-09-23T00:42:18.471Z,6.21
2022-09-23T00:43:18.461Z,6.21
2022-09-23T00:44:18.415Z,6.17
2022-09-23T00:45:18.424Z,6.25
2022-09-23T00:46:18.431Z,6.25
2022-09-23T00:47:18.398Z,6.25
2022-09-23T00:48:18.415Z,6.31
2022-09-23T00:49:18.391Z,6.31
2022-09-23T00:50:18.360Z,6.33
2022-09-23T00:51:18.351Z,6.37
2022-09-23T00:52:18.338Z,6.36
2022-09-23T00:53:18.313Z,6.41
2022-09-23T00:54:18.328Z,6.28
2022-09-23T00:55:18.304Z,6.41
2022-09-23T00:56:18.289Z,6.27
2022-09-23T00:57:18.276Z,6.36
2022-09-23T00:58:18.270Z,6.31
2022-09-23T00:59:18.295Z,6.49
2022-09-23T01:00:18.250Z,6.54
2022-09-23T01:01:18.257Z,6.38
2022-09-23T01:02:18.295Z,6.43
2022-09-23T01:03:18.211Z,6.41
2022-09-23T01:04:18.233Z,6.52
2022-09-23T01:05:18.205Z,6.46
2022-09-23T01:06:18.210Z,6.55
2022-09-23T01:07:18.173Z,6.56
2022-09-23T01:08:18.154Z,6.51
2022-09-23T01:09:18.146Z,6.66
2022-09-23T01:10:18.149Z,6.66
2022-09-23T01:11:18.143Z,6.64
2022-09-23T01:12:18.149Z,6.67
2022-09-23T01:13:18.089Z,6.71
2022-09-23T01:14:18.099Z,6.71
2022-09-23T01:15:18.082Z,6.77
2022-09-23T01:16:18.126Z,6.74
2022-09-23T01:17:18.047Z,6.66
2022-09-23T01:18:18.058Z,6.59
2022-09-23T01:19:18.050Z,6.61
2022-09-23T01:20:18.031Z,6.44
2022-09-23T01:21:18.003Z,6.41
2022-09-23T01:22:17.996Z,6.44
2022-09-23T01:23:17.972Z,6.54
2022-09-23T01:24:18.008Z,6.43
2022-09-23T01:25:18.010Z,6.55
2022-09-23T01:26:17.939Z,6.69
2022-09-23T01:27:18.934Z,6.66
2022-09-23T01:28:17.936Z,6.41
2022-09-23T01:29:17.920Z,6.44
2022-09-23T01:30:17.921Z,6.49
2022-09-23T01:31:17.978Z,6.52
2022-09-23T01:32:17.878Z,6.62
2022-09-23T01:33:17.865Z,6.67
2022-09-23T01:34:17.865Z,6.59
2022-09-23T01:35:17.852Z,6.64
2022-09-23T01:36:17.873Z,6.64
2022-09-23T01:37:17.847Z,6.59
2022-09-23T01:38:17.835Z,6.66
2022-09-23T01:39:17.806Z,6.69
2022-09-23T01:40:17.864Z,6.59
2022-09-23T01:41:17.805Z,6.52
2022-09-23T01:42:17.774Z,6.46
2022-09-23T01:43:17.770Z,6.31
2022-09-23T01:44:17.734Z,6.30
2022-09-23T01:45:17.745Z,6.27
2022-09-23T01:46:17.738Z,6.30
2022-09-23T01:47:17.733Z,6.33
2022-09-23T01:48:17.718Z,6.21
2022-09-23T01:49:17.722Z,6.15
2022-09-23T01:50:17.694Z,6.08
2022-09-23T01:51:17.706Z,6.19
2022-09-23T01:52:17.703Z,6.27
2022-09-23T01:53:17.638Z,6.31
2022-09-23T01:54:17.642Z,6.25
2022-09-23T01:55:17.640Z,6.21
2022-09-23T01:56:17.619Z,6.18
2022-09-23T01:57:17.647Z,6.27
2022-09-23T01:58:17.591Z,6.21
2022-09-23T01:59:17.593Z,6.28
2022-09-23T02:00:17.554Z,6.12
2022-09-23T02:01:17.636Z,6.19
2022-09-23T02:02:17.610Z,6.19
2022-09-23T02:03:17.559Z,6.19
2022-09-23T02:04:17.550Z,6.33
2022-09-23T02:05:17.526Z,6.19
2022-09-23T02:06:17.553Z,6.21
2022-09-23T02:07:17.496Z,6.14
2022-09-23T02:08:17.518Z,6.27
2022-09-23T02:09:18.479Z,6.19
2022-09-23T02:10:17.504Z,6.21
2022-09-23T02:11:17.462Z,6.06
2022-09-23T02:12:17.477Z,6.08
2022-09-23T02:13:17.477Z,6.04
2022-09-23T02:14:17.447Z,6.09
2022-09-23T02:15:17.427Z,6.11
2022-09-23T02:16:17.405Z,6.15
2022-09-23T02:17:17.391Z,6.08
2022-09-23T02:18:17.411Z,6.30
2022-09-23T02:19:17.382Z,6.17
2022-09-23T02:20:17.366Z,6.22
2022-09-23T02:21:17.360Z,6.17
2022-09-23T02:22:17.324Z,6.11
2022-09-23T02:23:17.349Z,5.99
2022-09-23T02:24:17.341Z,6.06
2022-09-23T02:25:17.441Z,5.96
2022-09-23T02:26:17.289Z,5.94
2022-09-23T02:27:17.292Z,5.96
2022-09-23T02:28:17.501Z,6.04
2022-09-23T02:29:17.281Z,6.04
2022-09-23T02:30:17.263Z,6.01
2022-09-23T02:31:17.255Z,6.03
2022-09-23T02:32:17.239Z,6.08
2022-09-23T02:33:17.235Z,6.14
2022-09-23T02:34:17.230Z,5.94
2022-09-23T02:35:17.189Z,5.97
2022-09-23T02:36:17.175Z,5.96
2022-09-23T02:37:17.340Z,5.68
2022-09-23T02:38:17.148Z,5.76
2022-09-23T02:39:17.185Z,5.79
2022-09-23T02:40:17.217Z,5.93
2022-09-23T02:41:17.126Z,5.85
2022-09-23T02:42:17.122Z,5.83
2022-09-23T02:43:17.105Z,5.81
2022-09-23T02:44:17.127Z,5.93
2022-09-23T02:45:17.080Z,5.93
2022-09-23T02:46:17.124Z,5.89
2022-09-23T02:47:17.041Z,5.94
2022-09-23T02:48:17.058Z,5.81
2022-09-23T02:49:17.035Z,5.85
2022-09-23T02:50:17.052Z,5.93
2022-09-23T02:51:17.015Z,5.94
2022-09-23T02:52:17.018Z,5.96
2022-09-23T02:53:16.985Z,6.01
2022-09-23T02:54:17.005Z,6.09
2022-09-23T02:55:16.999Z,6.09
2022-09-23T02:56:16.958Z,6.00
2022-09-23T02:57:16.946Z,6.00
2022-09-23T02:58:16.921Z,5.99
2022-09-23T03:01:41.737Z,6.04
2022-09-23T03:02:41.757Z,5.99
2022-09-23T03:03:41.509Z,5.96
2022-09-23T03:04:41.480Z,5.91
2022-09-23T03:05:41.489Z,5.83
2022-09-23T03:06:41.454Z,5.86
2022-09-23T03:07:41.467Z,5.91
2022-09-23T03:08:41.433Z,5.93
2022-09-23T03:09:41.428Z,5.86
2022-09-23T03:10:41.407Z,5.94
2022-09-23T03:11:41.417Z,5.99
2022-09-23T03:12:41.400Z,5.97
2022-09-23T03:13:41.377Z,6.08
2022-09-23T03:14:41.365Z,6.00
2022-09-23T03:15:41.354Z,6.14
2022-09-23T03:16:41.413Z,6.12
2022-09-23T03:17:41.350Z,6.12
2022-09-23T03:18:41.322Z,6.03
2022-09-23T03:19:41.480Z,6.15
2022-09-23T03:20:41.287Z,6.15
2022-09-23T03:21:41.297Z,6.04
2022-09-23T03:22:41.288Z,5.93
2022-09-23T03:23:41.268Z,5.96
2022-09-23T03:24:41.240Z,5.91
2022-09-23T03:25:41.243Z,5.89
2022-09-23T03:26:41.233Z,5.81
2022-09-23T03:27:41.248Z,5.81
2022-09-23T03:28:41.221Z,5.82
2022-09-23T03:29:41.176Z,5.78
2022-09-23T03:30:41.178Z,5.65
2022-09-23T03:31:41.217Z,5.68
2022-09-23T03:32:41.151Z,5.71
2022-09-23T03:33:41.188Z,5.76
2022-09-23T03:34:41.128Z,5.72
2022-09-23T03:35:41.111Z,5.71
2022-09-23T03:36:41.108Z,5.67
2022-09-23T03:37:41.086Z,5.72
2022-09-23T03:38:41.089Z,5.71
2022-09-23T03:39:41.078Z,5.72
2022-09-23T03:40:41.111Z,5.81
2022-09-23T03:41:41.040Z,5.86
2022-09-23T03:42:41.045Z,5.76
2022-09-23T03:43:41.025Z,5.67
2022-09-23T03:44:41.057Z,5.53
2022-09-23T03:45:41.040Z,5.64
2022-09-23T03:46:40.986Z,5.67
2022-09-23T03:47:40.968Z,5.74
2022-09-23T03:48:40.964Z,5.61
2022-09-23T03:49:40.960Z,5.49
2022-09-23T03:50:40.947Z,5.53
2022-09-23T03:51:44.523Z,5.63
2022-09-23T03:52:40.967Z,5.68
2022-09-23T03:53:41.076Z,5.57
2022-09-23T03:54:40.921Z,5.65
2022-09-23T03:55:40.875Z,5.71
2022-09-23T03:56:40.876Z,5.63
2022-09-23T03:57:40.853Z,5.56
2022-09-23T03:58:40.876Z,5.46
2022-09-23T03:59:40.855Z,5.48
2022-09-23T04:00:40.878Z,5.24
2022-09-23T04:01:40.826Z,5.20
2022-09-23T04:02:40.804Z,5.22
2022-09-23T04:03:40.783Z,5.20
2022-09-23T04:04:40.850Z,5.24
2022-09-23T04:05:40.793Z,5.38
2022-09-23T04:06:40.758Z,5.46
2022-09-23T04:07:40.727Z,5.38
2022-09-23T04:08:40.730Z,5.45
2022-09-23T04:09:40.708Z,5.36
2022-09-23T04:10:40.703Z,5.49
2022-09-23T04:11:40.700Z,5.43
2022-09-23T04:12:40.681Z,5.39
2022-09-23T04:13:40.663Z,5.43
2022-09-23T04:14:40.658Z,5.45
2022-09-23T04:15:40.634Z,5.38
2022-09-23T04:16:40.731Z,5.42
2022-09-23T04:17:40.614Z,5.60
2022-09-23T04:18:40.618Z,5.49
2022-09-23T04:19:40.590Z,5.48
2022-09-23T04:20:40.597Z,5.57
2022-09-23T04:21:40.599Z,5.53
2022-09-23T04:22:40.563Z,5.48
2022-09-23T04:23:40.544Z,5.51
2022-09-23T04:24:40.541Z,5.61
2022-09-23T04:25:40.520Z,5.46
2022-09-23T04:26:40.516Z,5.56
2022-09-23T04:27:40.539Z,5.48
2022-09-23T04:28:40.499Z,5.43
2022-09-23T04:29:40.486Z,5.46
2022-09-23T04:30:40.468Z,5.43
2022-09-23T04:31:40.575Z,5.48
2022-09-23T04:32:40.443Z,5.53
2022-09-23T04:33:40.443Z,5.48
2022-09-23T04:34:40.421Z,5.46
2022-09-23T04:35:40.566Z,5.33
2022-09-23T04:36:40.401Z,5.33
2022-09-23T04:37:40.375Z,5.46
2022-09-23T04:38:40.390Z,5.33
2022-09-23T04:39:41.487Z,5.43
2022-09-23T04:40:41.571Z,5.46
2022-09-23T04:41:41.467Z,5.53
2022-09-23T04:42:41.459Z,5.31
2022-09-23T04:43:41.452Z,5.30
2022-09-23T04:44:41.859Z,5.40
2022-09-23T04:45:41.416Z,5.27
2022-09-23T04:46:41.523Z,5.22
2022-09-23T04:47:41.384Z,5.28
2022-09-23T04:48:41.420Z,5.33
2022-09-23T04:49:41.371Z,5.28
2022-09-23T04:50:41.357Z,5.38
2022-09-23T04:51:41.352Z,5.40
2022-09-23T04:52:41.329Z,5.39
2022-09-23T04:53:41.722Z,5.43
2022-09-23T04:54:41.325Z,5.42
2022-09-23T04:55:41.301Z,5.48
2022-09-23T04:56:41.297Z,5.54
2022-09-23T04:57:41.259Z,5.51
2022-09-23T04:58:41.274Z,5.48
2022-09-23T04:59:41.264Z,5.35
2022-09-23T05:00:41.258Z,5.48
2022-09-23T05:01:41.279Z,5.42
2022-09-23T05:02:41.202Z,5.30
2022-09-23T05:03:41.204Z,5.39
2022-09-23T05:04:41.195Z,5.33
2022-09-23T05:05:41.176Z,5.27
2022-09-23T05:06:41.147Z,5.49
2022-09-23T05:07:41.147Z,5.42
2022-09-23T05:08:41.138Z,5.42
2022-09-23T05:09:41.153Z,5.49
2022-09-23T05:10:41.121Z,5.49
2022-09-23T05:11:41.117Z,5.67
2022-09-23T05:12:41.086Z,5.56
2022-09-23T05:13:41.097Z,5.40
2022-09-23T05:14:41.103Z,5.54
2022-09-23T05:15:41.062Z,5.57
2022-09-23T05:16:41.123Z,5.60
2022-09-23T05:17:41.033Z,5.68
2022-09-23T05:18:41.012Z,5.58
2022-09-23T05:19:41.052Z,5.57
2022-09-23T05:20:40.997Z,5.65
2022-09-23T05:21:40.996Z,5.57
2022-09-23T05:22:40.963Z,5.60
2022-09-23T05:23:40.966Z,5.75
2022-09-23T05:24:40.949Z,5.68
2022-09-23T05:25:40.991Z,5.78
2022-09-23T05:26:40.927Z,5.82
2022-09-23T05:27:40.925Z,5.89
2022-09-23T05:28:40.903Z,6.00
2022-09-23T05:29:40.880Z,6.04
2022-09-23T05:30:40.943Z,6.04
2022-09-23T05:31:41.160Z,6.04
2022-09-23T05:32:40.862Z,5.91
2022-09-23T05:33:40.852Z,6.01
2022-09-23T05:34:40.839Z,6.12
2022-09-23T05:35:40.827Z,6.09
2022-09-23T05:36:40.841Z,6.11
2022-09-23T05:37:40.794Z,6.15
2022-09-23T05:38:40.784Z,6.25
2022-09-23T05:39:41.530Z,6.34
2022-09-23T05:40:40.873Z,6.34
2022-09-23T05:41:40.808Z,6.48
2022-09-23T05:42:40.756Z,6.40
2022-09-23T05:43:40.739Z,6.58
2022-09-23T05:44:40.732Z,6.64
2022-09-23T05:45:40.716Z,6.64
2022-09-23T05:46:40.749Z,6.69
2022-09-23T05:47:40.696Z,6.74
2022-09-23T05:48:41.371Z,6.76
2022-09-23T05:49:58.639Z,6.87
2022-09-23T05:50:40.666Z,6.80
2022-09-23T05:51:40.660Z,6.77
2022-09-23T05:52:40.658Z,6.76
2022-09-23T05:53:40.638Z,6.64
2022-09-23T05:54:40.626Z,6.69
2022-09-23T05:55:40.607Z,6.74
2022-09-23T05:56:40.596Z,6.66
2022-09-23T05:57:40.620Z,6.77
2022-09-23T05:58:40.573Z,6.59
2022-09-23T05:59:40.580Z,6.55
2022-09-23T06:00:40.548Z,6.58
2022-09-23T06:01:40.579Z,6.88
2022-09-23T06:02:40.642Z,7.06
2022-09-23T06:03:40.534Z,6.99
2022-09-23T06:04:40.504Z,7.24
2022-09-23T06:05:40.509Z,7.37
2022-09-23T06:06:40.483Z,7.52
2022-09-23T06:07:40.482Z,7.40
2022-09-23T06:08:40.488Z,7.39
2022-09-23T06:09:41.451Z,7.49
2022-09-23T06:10:40.447Z,7.77
2022-09-23T06:11:40.428Z,7.92
2022-09-23T06:12:40.441Z,8.22
2022-09-23T06:13:40.425Z,8.38
2022-09-23T06:14:40.396Z,8.65
2022-09-23T06:15:40.431Z,8.76
2022-09-23T06:16:40.363Z,9.05
2022-09-23T06:17:40.360Z,9.51
2022-09-23T06:18:40.400Z,10.11
2022-09-23T06:19:40.334Z,10.61
2022-09-23T06:20:40.321Z,11.14
2022-09-23T06:21:40.321Z,11.69
2022-09-23T06:22:40.339Z,12.07
2022-09-23T06:23:41.768Z,12.53
2022-09-23T06:24:40.288Z,12.64
2022-09-23T06:25:40.276Z,12.79
2022-09-23T06:26:40.254Z,12.92
2022-09-23T06:27:40.264Z,12.74
2022-09-23T06:28:40.237Z,12.75
2022-09-23T06:29:40.262Z,12.70
2022-09-23T06:30:40.207Z,12.92
2022-09-23T06:31:40.254Z,12.82
2022-09-23T06:32:40.195Z,13.04
2022-09-23T06:33:40.187Z,12.83
2022-09-23T06:34:50.366Z,13.12
2022-09-23T06:35:40.791Z,13.33
2022-09-23T06:36:44.570Z,13.14
2022-09-23T06:37:40.137Z,12.85
2022-09-23T06:38:40.127Z,13.05
2022-09-23T06:39:40.115Z,13.25
2022-09-23T06:40:40.208Z,13.52
2022-09-23T06:41:40.077Z,13.20
2022-09-23T06:42:40.086Z,12.21
2022-09-23T06:43:40.064Z,12.49
2022-09-23T06:44:40.050Z,12.50
2022-09-23T06:45:40.070Z,12.05
2022-09-23T06:46:40.097Z,12.09
2022-09-23T06:47:40.030Z,11.58
2022-09-23T06:48:42.852Z,10.86
2022-09-23T06:49:40.006Z,11.00
2022-09-23T06:50:39.997Z,11.29
2022-09-23T06:51:39.989Z,11.00
2022-09-23T06:52:39.969Z,10.92
2022-09-23T06:53:39.964Z,10.97
2022-09-23T06:54:39.948Z,11.06
2022-09-23T06:55:39.936Z,10.96
2022-09-23T06:56:40.230Z,11.00
2022-09-23T06:57:39.912Z,10.86
2022-09-23T06:58:39.890Z,10.73
2022-09-23T06:59:40.895Z,10.61
2022-09-23T07:00:39.876Z,10.48
2022-09-23T07:01:40.004Z,10.23
2022-09-23T07:02:39.947Z,10.30
2022-09-23T07:03:39.849Z,10.59
2022-09-23T07:04:39.852Z,10.78
2022-09-23T07:05:39.814Z,10.82
2022-09-23T07:06:39.811Z,10.82
2022-09-23T07:07:39.814Z,10.92
2022-09-23T07:08:39.786Z,11.24
2022-09-23T07:09:39.762Z,11.57
2022-09-23T07:10:39.776Z,11.46
2022-09-23T07:11:39.773Z,11.76
2022-09-23T07:12:39.773Z,11.79
2022-09-23T07:13:39.726Z,12.14
2022-09-23T07:14:39.717Z,12.42
2022-09-23T07:15:39.764Z,13.05
2022-09-23T07:16:39.685Z,13.52
2022-09-23T07:17:39.726Z,14.06
2022-09-23T07:18:39.678Z,14.12
2022-09-23T07:19:39.676Z,13.66
2022-09-23T07:20:39.659Z,13.39
2022-09-23T07:21:39.636Z,13.51
2022-09-23T07:22:39.626Z,14.15
2022-09-23T07:23:39.642Z,14.46
2022-09-23T07:24:39.614Z,14.80
2022-09-23T07:25:39.598Z,14.88
2022-09-23T07:26:44.868Z,14.91
2022-09-23T07:27:39.578Z,15.16
2022-09-23T07:28:39.588Z,15.53
2022-09-23T07:29:48.169Z,15.34
2022-09-23T07:30:44.250Z,15.62
2022-09-23T07:31:40.196Z,15.50
2022-09-23T07:32:48.273Z,15.93
2022-09-23T07:33:39.557Z,16.33
2022-09-23T07:34:39.505Z,16.86
2022-09-23T07:35:39.493Z,16.34
2022-09-23T07:36:39.476Z,15.27
2022-09-23T07:37:39.472Z,14.92
2022-09-23T07:38:44.982Z,15.16
2022-09-23T07:39:39.471Z,15.50
2022-09-23T07:40:39.469Z,15.94
2022-09-23T07:41:39.416Z,15.72
2022-09-23T07:42:39.418Z,16.43
2022-09-23T07:43:39.406Z,17.00
2022-09-23T07:44:39.423Z,16.58
2022-09-23T07:45:39.542Z,17.08
2022-09-23T07:46:39.443Z,17.81
2022-09-23T07:47:39.462Z,17.95
2022-09-23T07:48:39.345Z,17.81
2022-09-23T07:49:39.372Z,17.30
2022-09-23T07:50:39.331Z,17.26
2022-09-23T07:51:39.309Z,17.87
2022-09-23T07:52:39.293Z,17.96
2022-09-23T07:53:39.287Z,17.49
2022-09-23T07:54:39.276Z,17.38
2022-09-23T07:55:39.311Z,17.04
2022-09-23T07:56:39.238Z,16.28
2022-09-23T07:57:39.241Z,17.00
2022-09-23T07:58:39.221Z,17.11
2022-09-23T07:59:39.205Z,17.72
2022-09-23T08:00:39.232Z,18.42
2022-09-23T08:01:39.264Z,17.93
2022-09-23T08:02:39.231Z,18.07
2022-09-23T08:03:39.155Z,18.26
2022-09-23T08:04:39.156Z,17.97
2022-09-23T08:05:39.155Z,18.25
2022-09-23T08:06:39.178Z,18.25
2022-09-23T08:07:39.109Z,18.76
2022-09-23T08:08:39.081Z,18.85
2022-09-23T08:09:39.096Z,18.76
2022-09-23T08:10:39.118Z,17.70
2022-09-23T08:11:39.093Z,17.68
2022-09-23T08:12:39.048Z,17.90
2022-09-23T08:13:39.032Z,18.03
2022-09-23T08:14:39.013Z,18.00
2022-09-23T08:15:39.059Z,18.10
2022-09-23T08:16:39.002Z,18.29
2022-09-23T08:17:39.010Z,16.78
2022-09-23T08:18:38.978Z,16.21
2022-09-23T08:19:38.944Z,15.82
2022-09-23T08:20:42.514Z,15.74
2022-09-23T08:21:38.958Z,15.62
2022-09-23T08:22:38.956Z,16.53
2022-09-23T08:23:38.906Z,17.15
2022-09-23T08:24:38.890Z,16.56
2022-09-23T08:25:38.905Z,16.57
2022-09-23T08:26:38.875Z,16.88
2022-09-23T08:27:38.897Z,16.42
2022-09-23T08:28:38.861Z,15.28
2022-09-23T08:29:38.834Z,14.83
2022-09-23T08:30:38.850Z,14.75
2022-09-23T08:31:38.815Z,15.09
2022-09-23T08:32:38.838Z,15.46
2022-09-23T08:33:39.317Z,15.50
2022-09-23T08:34:38.791Z,15.62
2022-09-23T08:35:38.764Z,15.35
2022-09-23T08:36:38.886Z,15.31
2022-09-23T08:39:30.038Z,14.72
2022-09-23T08:40:29.186Z,14.54
2022-09-23T08:41:29.087Z,14.35
2022-09-23T08:42:29.038Z,14.45
2022-09-23T08:43:28.939Z,14.46
2022-09-23T08:44:28.995Z,14.88
2022-09-23T08:45:28.916Z,14.94
2022-09-23T08:46:28.961Z,14.68
2022-09-23T08:47:28.905Z,14.72
2022-09-23T08:48:28.872Z,15.20
2022-09-23T08:49:28.918Z,15.43
2022-09-23T08:50:28.850Z,15.49
2022-09-23T08:51:29.090Z,15.41
2022-09-23T08:53:38.420Z,14.69
2022-09-23T08:54:38.407Z,14.37
2022-09-23T08:55:38.357Z,14.50
2022-09-23T08:56:38.421Z,14.47
2022-09-23T08:59:03.208Z,14.68
2022-09-23T09:00:03.099Z,14.91
2022-09-23T09:01:01.350Z,14.65
2022-09-23T09:02:01.282Z,14.65
2022-09-23T09:03:01.264Z,14.72
2022-09-23T09:04:01.267Z,15.21
2022-09-23T09:05:01.240Z,15.14
2022-09-23T09:06:01.278Z,15.49
2022-09-23T09:07:24.500Z,15.69
2022-09-23T09:08:01.216Z,15.83
2022-09-23T09:09:01.209Z,15.36
2022-09-23T09:10:01.196Z,15.41
2022-09-23T09:11:01.172Z,15.54
2022-09-23T09:12:01.190Z,15.56
2022-09-23T09:13:01.153Z,14.98
2022-09-23T09:14:11.419Z,14.75
2022-09-23T09:15:01.311Z,14.68
2022-09-23T09:16:02.573Z,14.45
2022-09-23T09:17:02.540Z,14.98
2022-09-23T09:18:02.263Z,15.09
2022-09-23T09:19:02.291Z,15.44
2022-09-23T09:20:02.220Z,15.50
2022-09-23T09:21:02.226Z,14.92
2022-09-23T09:22:02.227Z,15.34
2022-09-23T09:23:02.185Z,15.43
2022-09-23T09:24:02.225Z,14.96
2022-09-23T09:25:02.196Z,14.57
2022-09-23T09:26:02.162Z,14.52
2022-09-23T09:27:02.153Z,15.14
2022-09-23T09:28:02.144Z,15.27
2022-09-23T09:30:49.677Z,15.68
2022-09-23T09:31:49.668Z,15.97
2022-09-23T09:32:49.529Z,16.38
2022-09-23T09:33:49.468Z,16.64
2022-09-23T09:34:49.495Z,17.01
2022-09-23T09:35:49.433Z,16.89
2022-09-23T09:36:49.470Z,17.40
2022-09-23T09:37:49.470Z,17.37
2022-09-23T09:38:49.435Z,17.99
2022-09-23T09:39:49.394Z,17.08
2022-09-23T09:40:49.411Z,16.48
2022-09-23T09:41:49.363Z,17.18
2022-09-23T09:42:49.389Z,17.43
2022-09-23T09:43:49.360Z,16.53
2022-09-23T09:44:49.338Z,15.53
2022-09-23T09:45:52.711Z,15.82
2022-09-23T09:46:49.380Z,16.43
2022-09-23T09:47:50.511Z,16.93
2022-09-23T09:48:50.492Z,17.34
2022-09-23T09:49:50.473Z,17.77
2022-09-23T09:50:50.421Z,18.36
2022-09-23T09:51:50.408Z,18.11
2022-09-23T09:52:50.385Z,18.33
2022-09-23T09:53:50.336Z,18.85
2022-09-23T09:54:50.367Z,18.60
2022-09-23T09:55:50.311Z,18.50
2022-09-23T09:56:50.331Z,18.84
2022-09-23T09:57:50.380Z,18.21
2022-09-23T09:58:50.284Z,17.92
2022-09-23T09:59:50.277Z,18.21
2022-09-23T10:00:50.259Z,18.26
2022-09-23T10:01:50.216Z,17.87
2022-09-23T10:02:50.282Z,18.51
2022-09-23T10:03:51.392Z,18.37
2022-09-23T10:04:50.301Z,18.21
2022-09-23T10:05:50.191Z,17.89
2022-09-23T10:06:50.132Z,18.03
2022-09-23T10:07:50.157Z,18.66
2022-09-23T10:08:50.125Z,17.64
2022-09-23T10:09:50.204Z,17.52
2022-09-23T10:10:50.134Z,18.50
2022-09-23T10:11:50.155Z,19.36
2022-09-23T10:12:50.383Z,19.10
2022-09-23T10:13:50.433Z,18.67
2022-09-23T10:14:50.057Z,18.94
2022-09-23T10:15:50.001Z,19.16
2022-09-23T10:16:50.052Z,19.26
2022-09-23T10:17:50.006Z,19.28
2022-09-23T10:18:50.107Z,18.95
2022-09-23T10:19:49.959Z,19.19
2022-09-23T10:20:49.935Z,19.25
2022-09-23T10:24:14.783Z,18.25
2022-09-23T10:25:14.782Z,18.91
2022-09-23T10:26:14.715Z,18.82
2022-09-23T10:27:14.741Z,18.92
2022-09-23T10:28:14.686Z,19.26
2022-09-23T10:29:14.707Z,18.58
2022-09-23T10:30:14.657Z,17.38
2022-09-23T10:31:14.698Z,17.58
2022-09-23T10:32:14.658Z,17.99
2022-09-23T10:33:14.658Z,18.05
2022-09-23T10:34:14.604Z,18.73
2022-09-23T10:35:14.634Z,19.07
2022-09-23T10:36:14.568Z,17.97
2022-09-23T10:37:14.584Z,17.82
2022-09-23T10:38:14.547Z,17.99
2022-09-23T10:39:14.582Z,18.05
2022-09-23T10:40:14.602Z,17.92
2022-09-23T10:41:14.538Z,17.31
2022-09-23T10:42:14.562Z,16.68
2022-09-23T10:43:14.503Z,17.37
2022-09-23T10:44:14.470Z,17.04
2022-09-23T10:45:14.508Z,17.44
2022-09-23T10:46:14.467Z,17.77
2022-09-23T10:47:14.438Z,17.33
2022-09-23T10:48:14.457Z,17.08
2022-09-23T10:49:14.413Z,17.25
2022-09-23T10:50:14.395Z,17.51
2022-09-23T10:51:14.426Z,17.54
2022-09-23T10:52:14.393Z,17.79
2022-09-23T10:53:14.394Z,17.62
2022-09-23T10:54:14.338Z,16.57
2022-09-23T10:55:14.336Z,16.82
2022-09-23T10:56:14.336Z,16.71
2022-09-23T10:57:14.339Z,16.96
2022-09-23T10:58:14.337Z,17.03
2022-09-23T10:59:14.311Z,16.98
2022-09-23T11:00:14.264Z,16.64
2022-09-23T11:01:14.316Z,16.58
2022-09-23T11:02:14.239Z,16.70
2022-09-23T11:03:14.274Z,16.91
2022-09-23T11:04:14.458Z,17.16
2022-09-23T11:05:14.220Z,17.52
2022-09-23T11:06:14.189Z,17.30
2022-09-23T11:07:14.189Z,17.12
2022-09-23T11:08:14.211Z,17.34
2022-09-23T11:09:14.239Z,17.75
2022-09-23T11:10:29.001Z,17.97
2022-09-23T11:11:15.158Z,17.97
2022-09-23T11:12:14.127Z,17.72
2022-09-23T11:13:14.120Z,17.00
2022-09-23T11:14:14.202Z,17.37
2022-09-23T11:15:14.131Z,17.40
2022-09-23T11:16:14.130Z,17.43
2022-09-23T11:17:14.067Z,17.49
2022-09-23T11:18:14.052Z,17.51
2022-09-23T11:19:14.067Z,17.49
2022-09-23T11:20:14.042Z,17.66
2022-09-23T11:21:14.108Z,17.56
2022-09-23T11:22:14.001Z,17.54
2022-09-23T11:23:14.004Z,17.49
2022-09-23T11:24:13.975Z,17.56
2022-09-23T11:25:14.005Z,17.93
2022-09-23T11:26:13.948Z,17.40
2022-09-23T11:27:13.985Z,17.26
2022-09-23T11:28:13.927Z,17.37
2022-09-23T11:29:13.936Z,17.89
2022-09-23T11:30:13.918Z,18.02
2022-09-23T11:31:13.963Z,17.93
2022-09-23T11:32:13.887Z,17.93
2022-09-23T11:33:14.034Z,17.54
2022-09-23T11:34:13.880Z,17.68
2022-09-23T11:35:13.891Z,18.14
2022-09-23T11:36:13.864Z,17.90
2022-09-23T11:37:13.848Z,17.93
2022-09-23T11:38:13.814Z,17.93
2022-09-23T11:39:13.810Z,18.17
2022-09-23T11:40:15.171Z,17.58
2022-09-23T11:41:14.917Z,17.63
2022-09-23T11:42:14.927Z,17.40
2022-09-23T11:43:14.876Z,17.46
2022-09-23T11:44:14.905Z,17.54
2022-09-23T11:45:14.854Z,17.86
2022-09-23T11:46:14.934Z,17.82
2022-09-23T11:47:50.048Z,17.68
2022-09-23T11:48:14.939Z,17.18
2022-09-23T11:49:15.006Z,16.79
2022-09-23T11:50:14.852Z,16.79
2022-09-23T11:51:14.906Z,17.00
2022-09-23T11:52:14.856Z,16.96
2022-09-23T11:53:14.936Z,17.22
2022-09-23T11:54:19.742Z,17.49
2022-09-23T11:55:21.283Z,17.11
2022-09-23T11:56:17.600Z,17.28
2022-09-23T11:57:14.766Z,17.12
2022-09-23T11:58:26.223Z,17.03
2022-09-23T11:59:15.230Z,17.25
2022-09-23T12:00:14.988Z,17.48
2022-09-23T12:01:14.882Z,17.12
2022-09-23T12:02:20.306Z,17.46
2022-09-23T12:03:14.734Z,17.74
2022-09-23T12:04:20.530Z,17.77
2022-09-23T12:05:14.750Z,17.99
2022-09-23T12:06:15.045Z,17.92
2022-09-23T12:07:14.630Z,17.84
2022-09-23T12:08:14.650Z,17.96
2022-09-23T12:09:14.596Z,18.08
2022-09-23T12:10:14.599Z,18.15
2022-09-23T12:11:14.590Z,18.50
2022-09-23T12:12:14.572Z,18.51
2022-09-23T12:13:14.578Z,18.33
2022-09-23T12:14:14.813Z,18.47
2022-09-23T12:15:14.884Z,18.67
2022-09-23T12:16:14.637Z,19.07
2022-09-23T12:17:14.495Z,18.90
2022-09-23T12:18:14.506Z,18.10
2022-09-23T12:19:14.553Z,17.64
2022-09-23T12:20:14.502Z,17.89
2022-09-23T12:21:32.756Z,17.43
2022-09-23T12:22:15.487Z,17.62
2022-09-23T12:23:14.459Z,17.70
2022-09-23T12:24:18.442Z,17.89
2022-09-23T12:25:14.450Z,17.64
2022-09-23T12:26:14.405Z,17.75
2022-09-23T12:27:14.405Z,17.21
2022-09-23T12:28:14.412Z,17.00
2022-09-23T12:29:14.390Z,16.85
2022-09-23T12:30:14.396Z,16.56
2022-09-23T12:31:14.431Z,16.94
2022-09-23T12:32:14.316Z,17.21
2022-09-23T12:33:14.320Z,17.37
2022-09-23T12:34:14.312Z,17.48
2022-09-23T12:35:14.319Z,17.63
2022-09-23T12:36:14.300Z,17.95
2022-09-23T12:37:14.266Z,18.05
2022-09-23T12:38:14.266Z,17.25
2022-09-23T12:39:14.273Z,16.78
2022-09-23T12:40:14.265Z,16.96
2022-09-23T12:41:14.257Z,17.36
2022-09-23T12:42:14.236Z,16.89
2022-09-23T12:43:14.212Z,17.11
2022-09-23T12:44:14.199Z,17.31
2022-09-23T12:45:14.184Z,17.04
2022-09-23T12:46:14.248Z,17.08
2022-09-23T12:47:14.162Z,17.38
2022-09-23T12:48:14.161Z,17.44
2022-09-23T12:49:14.130Z,16.86
2022-09-23T12:50:17.679Z,16.43
2022-09-23T12:51:14.166Z,16.48
2022-09-23T12:52:14.109Z,16.88
2022-09-23T12:53:14.090Z,16.53
2022-09-23T12:54:14.103Z,16.25
2022-09-23T12:55:14.072Z,16.41
2022-09-23T12:56:14.064Z,16.50
2022-09-23T12:57:14.086Z,16.63
2022-09-23T12:58:14.046Z,16.71
2022-09-23T12:59:14.028Z,16.79
2022-09-23T13:00:14.032Z,16.91
2022-09-23T13:01:14.983Z,17.11
2022-09-23T13:02:14.099Z,17.19
2022-09-23T13:03:13.997Z,17.26
2022-09-23T13:04:13.974Z,17.36
2022-09-23T13:05:13.965Z,17.22
2022-09-23T13:06:13.964Z,17.28
2022-09-23T13:07:13.951Z,17.04
2022-09-23T13:08:13.925Z,17.06
2022-09-23T13:09:13.933Z,17.26
2022-09-23T13:10:14.571Z,17.34
2022-09-23T13:11:13.899Z,17.68
2022-09-23T13:12:13.934Z,18.11
2022-09-23T13:13:13.877Z,18.02
2022-09-23T13:14:13.867Z,17.84
2022-09-23T13:15:13.862Z,17.14